Time;durP1;ratioP1;P1;durP2;ratioP2;P2;SDS_P1;SDS_P2;PMS_P1;PMS_P2;Temp;Humidity;BMP_temperature;BMP_pressure;BME280_temperature;BME280_humidity;BME280_pressure;Samples;Min_cycle;Max_cycle;Signal;HPM_P1;HPM_P2
2023/06/19 00:00:07;;;;;;;5.60;5.03;;;20.40;80.00;;;;;;5030833;28;20311;-81
2023/06/19 00:02:40;;;;;;;6.57;5.13;;;20.40;80.40;;;;;;5035597;28;20231;-82
2023/06/19 00:05:07;;;;;;;5.13;4.63;;;20.40;80.40;;;;;;5027884;28;20974;-81
2023/06/19 00:07:34;;;;;;;5.88;5.28;;;20.40;80.40;;;;;;5026406;28;20243;-81
2023/06/19 00:10:01;;;;;;;5.70;5.10;;;20.40;80.70;;;;;;5031780;28;20213;-81
2023/06/19 00:12:28;;;;;;;5.45;4.95;;;20.40;81.00;;;;;;5030588;28;20231;-82
2023/06/19 00:14:55;;;;;;;5.93;5.00;;;20.40;81.10;;;;;;5026830;28;20223;-81
2023/06/19 00:17:22;;;;;;;5.72;4.90;;;20.40;81.10;;;;;;5025639;28;20280;-82
2023/06/19 00:19:50;;;;;;;5.15;4.65;;;20.30;81.40;;;;;;5028739;28;20958;-81
2023/06/19 00:22:17;;;;;;;6.80;5.30;;;20.40;81.80;;;;;;5034940;28;20246;-83
2023/06/19 00:24:44;;;;;;;6.78;5.32;;;20.30;81.80;;;;;;5030760;28;20278;-84
2023/06/19 00:27:11;;;;;;;5.65;5.05;;;20.30;82.20;;;;;;5029938;28;20278;-83
2023/06/19 00:29:38;;;;;;;8.48;5.38;;;20.30;82.30;;;;;;5031138;28;20278;-83
2023/06/19 00:32:06;;;;;;;6.30;5.63;;;20.30;82.30;;;;;;5025097;28;20302;-82
2023/06/19 00:34:33;;;;;;;5.50;5.00;;;20.30;82.70;;;;;;5020961;28;20407;-83
2023/06/19 00:37:01;;;;;;;6.82;5.63;;;20.30;83.30;;;;;;5054046;28;20235;-81
2023/06/19 00:39:28;;;;;;;6.57;5.38;;;20.30;84.90;;;;;;5028135;28;20311;-82
2023/06/19 00:41:56;;;;;;;6.03;5.43;;;20.30;85.80;;;;;;5023219;28;20687;-82
2023/06/19 00:44:24;;;;;;;6.10;5.28;;;20.30;87.10;;;;;;5032943;28;20241;-85
2023/06/19 00:47:03;;;;;;;7.05;5.32;;;20.30;88.10;;;;;;5027896;28;20221;-84
2023/06/19 00:49:31;;;;;;;5.55;5.05;;;20.20;88.50;;;;;;5023446;28;20584;-82
2023/06/19 00:51:58;;;;;;;8.38;5.70;;;20.20;88.40;;;;;;5031996;28;20308;-83
2023/06/19 00:54:26;;;;;;;6.03;5.20;;;20.20;88.40;;;;;;5032330;28;20761;-83
2023/06/19 00:56:53;;;;;;;6.32;5.05;;;20.10;88.30;;;;;;5030277;28;20292;-80
2023/06/19 00:59:22;;;;;;;6.00;5.43;;;20.10;88.60;;;;;;5058200;28;20687;-80
2023/06/19 01:01:49;;;;;;;7.22;5.50;;;20.10;89.10;;;;;;5020034;28;20267;-80
2023/06/19 01:04:15;;;;;;;7.18;5.28;;;20.10;88.30;;;;;;5029093;28;20226;-81
2023/06/19 01:06:52;;;;;;;5.85;5.32;;;20.00;88.90;;;;;;5020848;28;20240;-80
2023/06/19 01:09:20;;;;;;;7.90;5.43;;;20.00;89.00;;;;;;5028363;28;20247;-82
2023/06/19 01:11:53;;;;;;;6.10;5.50;;;20.10;88.70;;;;;;5026198;28;20224;-82
2023/06/19 01:14:23;;;;;;;6.05;5.20;;;20.00;88.70;;;;;;5032753;28;20251;-82
2023/06/19 01:16:51;;;;;;;6.53;5.65;;;20.10;88.80;;;;;;5033813;28;20225;-84
2023/06/19 01:19:20;;;;;;;6.28;5.68;;;20.00;88.80;;;;;;5036614;28;20223;-83
2023/06/19 01:21:48;;;;;;;7.60;5.43;;;20.10;88.90;;;;;;5034965;28;20228;-83
2023/06/19 01:24:16;;;;;;;7.15;5.53;;;20.00;88.70;;;;;;5037002;28;20233;-83
2023/06/19 01:26:45;;;;;;;5.90;5.35;;;20.00;88.90;;;;;;5024796;28;20809;-83
2023/06/19 01:29:13;;;;;;;5.72;4.93;;;20.00;88.70;;;;;;5026950;28;20227;-81
2023/06/19 01:31:51;;;;;;;6.60;6.00;;;20.00;88.80;;;;;;5034555;28;20216;-83
2023/06/19 01:34:21;;;;;;;6.10;5.45;;;20.00;89.10;;;;;;5025308;28;20231;-82
2023/06/19 01:36:49;;;;;;;6.03;5.43;;;20.00;89.10;;;;;;5031809;28;20507;-82
2023/06/19 01:39:19;;;;;;;6.13;5.35;;;20.00;89.00;;;;;;5037283;28;20223;-81
2023/06/19 01:41:47;;;;;;;6.28;5.20;;;20.00;89.30;;;;;;5032727;28;20315;-81
2023/06/19 01:44:14;;;;;;;6.45;5.85;;;20.00;89.20;;;;;;5032606;28;20220;-82
2023/06/19 01:46:40;;;;;;;6.45;5.80;;;20.00;89.30;;;;;;5028295;28;20220;-81
2023/06/19 01:49:09;;;;;;;6.20;5.60;;;20.00;89.30;;;;;;5027479;28;20311;-80
2023/06/19 01:51:36;;;;;;;6.25;5.47;;;20.00;89.50;;;;;;5028618;28;20235;-81
2023/06/19 01:54:04;;;;;;;7.28;5.50;;;20.00;89.60;;;;;;5029731;28;20971;-81
2023/06/19 01:56:33;;;;;;;6.20;5.60;;;20.00;89.70;;;;;;5026244;28;20236;-82
2023/06/19 01:59:00;;;;;;;6.30;5.70;;;20.00;89.70;;;;;;5032318;28;20212;-81
2023/06/19 02:01:27;;;;;;;6.55;5.93;;;20.00;89.70;;;;;;5024733;28;20232;-81
2023/06/19 02:03:53;;;;;;;5.90;5.30;;;20.00;89.60;;;;;;5033486;28;20317;-81
2023/06/19 02:06:21;;;;;;;6.22;5.63;;;20.00;89.70;;;;;;5027942;28;20220;-81
2023/06/19 02:08:48;;;;;;;6.57;5.90;;;20.00;89.70;;;;;;5029703;28;20233;-81
2023/06/19 02:11:14;;;;;;;8.45;5.88;;;20.00;89.80;;;;;;5028317;28;20218;-80
2023/06/19 02:13:43;;;;;;;6.25;5.65;;;20.00;89.90;;;;;;5030582;28;20221;-80
2023/06/19 02:16:10;;;;;;;6.40;5.47;;;20.00;90.10;;;;;;5031541;28;20224;-80
2023/06/19 02:18:36;;;;;;;6.53;5.93;;;20.00;90.10;;;;;;5027338;28;20312;-80
2023/06/19 02:21:03;;;;;;;6.57;5.70;;;19.90;90.20;;;;;;5029857;28;20234;-80
2023/06/19 02:23:30;;;;;;;6.63;5.93;;;19.90;90.20;;;;;;5030024;28;20253;-80
2023/06/19 02:25:57;;;;;;;6.68;6.03;;;19.90;90.30;;;;;;5031283;28;20216;-80
2023/06/19 02:28:23;;;;;;;6.10;5.50;;;19.90;90.40;;;;;;5026462;28;20216;-81
2023/06/19 02:30:51;;;;;;;9.90;6.03;;;19.90;90.40;;;;;;5030728;28;20224;-82
2023/06/19 02:33:18;;;;;;;6.18;5.57;;;19.90;90.50;;;;;;5045586;28;20743;-79
2023/06/19 02:35:46;;;;;;;6.72;6.07;;;19.90;90.60;;;;;;5026861;28;20224;-80
2023/06/19 02:38:14;;;;;;;6.63;5.50;;;19.90;90.60;;;;;;5027153;28;20225;-80
2023/06/19 02:40:41;;;;;;;6.18;5.63;;;19.90;90.80;;;;;;5027624;28;20657;-81
2023/06/19 02:43:08;;;;;;;7.50;6.57;;;19.90;90.80;;;;;;5029459;28;20236;-82
2023/06/19 02:45:35;;;;;;;7.53;6.35;;;19.90;91.20;;;;;;5029924;28;20232;-83
2023/06/19 02:48:05;;;;;;;7.10;6.40;;;19.80;90.80;;;;;;5025076;28;20217;-83
2023/06/19 02:50:32;;;;;;;6.22;5.63;;;19.80;91.00;;;;;;5023630;28;20307;-85
2023/06/19 02:52:59;;;;;;;6.65;6.03;;;19.80;91.10;;;;;;5029002;28;20217;-82
2023/06/19 02:55:26;;;;;;;7.13;6.43;;;19.80;91.10;;;;;;5025747;28;20237;-81
2023/06/19 02:57:53;;;;;;;6.45;5.85;;;19.80;91.20;;;;;;5025696;28;20332;-82
2023/06/19 03:00:20;;;;;;;6.90;6.20;;;19.80;91.20;;;;;;5025978;28;20516;-81
2023/06/19 03:02:48;;;;;;;7.00;6.30;;;19.80;91.40;;;;;;5027554;28;20225;-81
2023/06/19 03:05:16;;;;;;;6.38;5.78;;;19.70;91.70;;;;;;5028062;28;20903;-83
2023/06/19 03:07:43;;;;;;;7.25;6.13;;;19.70;91.50;;;;;;5035953;28;20311;-83
2023/06/19 03:10:10;;;;;;;6.90;6.20;;;19.70;91.50;;;;;;5025595;28;20746;-82
2023/06/19 03:12:37;;;;;;;6.90;6.20;;;19.70;91.60;;;;;;5023912;28;20336;-83
2023/06/19 03:15:04;;;;;;;7.07;6.38;;;19.70;91.60;;;;;;5023829;28;20311;-82
2023/06/19 03:17:33;;;;;;;6.45;5.85;;;19.70;91.70;;;;;;5022879;28;20282;-83
2023/06/19 03:20:00;;;;;;;7.03;6.10;;;19.70;91.80;;;;;;5024909;28;20213;-83
2023/06/19 03:22:28;;;;;;;6.93;6.32;;;19.70;91.90;;;;;;5025903;28;20298;-85
2023/06/19 03:24:55;;;;;;;7.05;6.30;;;19.70;92.00;;;;;;5045383;28;20225;-84
2023/06/19 03:27:22;;;;;;;7.10;6.20;;;19.70;91.90;;;;;;5031863;28;20234;-84
2023/06/19 03:29:49;;;;;;;6.93;6.32;;;19.70;92.10;;;;;;5033218;28;20657;-84
2023/06/19 03:32:22;;;;;;;7.35;6.65;;;19.60;92.10;;;;;;5019182;28;20224;-83
2023/06/19 03:34:49;;;;;;;8.75;6.63;;;19.70;92.10;;;;;;5030736;28;20231;-84
2023/06/19 03:37:17;;;;;;;7.10;6.40;;;19.70;92.10;;;;;;5028341;28;20224;-84
2023/06/19 03:39:45;;;;;;;7.50;6.70;;;19.60;92.10;;;;;;5025983;28;20231;-84
2023/06/19 03:42:12;;;;;;;7.85;6.70;;;19.70;92.30;;;;;;5014474;28;20209;-83
2023/06/19 03:44:40;;;;;;;6.95;6.25;;;19.70;92.30;;;;;;5055334;28;20301;-85
2023/06/19 03:47:07;;;;;;;6.60;6.00;;;19.70;92.30;;;;;;5019046;28;20743;-83
2023/06/19 03:49:34;;;;;;;7.68;6.88;;;19.70;92.40;;;;;;5037500;28;20233;-82
2023/06/19 03:52:01;;;;;;;7.88;6.18;;;19.70;92.40;;;;;;5022138;28;20217;-82
2023/06/19 03:54:28;;;;;;;7.22;6.28;;;19.70;92.30;;;;;;5019576;28;20235;-83
2023/06/19 03:56:56;;;;;;;7.30;6.60;;;19.70;92.30;;;;;;5026147;28;21230;-82
2023/06/19 03:59:23;;;;;;;7.15;6.45;;;19.70;92.50;;;;;;5042605;28;20225;-82
2023/06/19 04:01:49;;;;;;;7.55;6.60;;;19.70;92.40;;;;;;5025260;28;20843;-83
2023/06/19 04:04:18;;;;;;;7.82;7.13;;;19.70;92.40;;;;;;5029702;28;20217;-84
2023/06/19 04:06:46;;;;;;;7.78;6.97;;;19.70;92.40;;;;;;5028261;28;20226;-84
2023/06/19 04:09:13;;;;;;;7.15;6.47;;;19.70;92.50;;;;;;5029873;28;20221;-84
2023/06/19 04:11:40;;;;;;;8.27;7.47;;;19.80;92.50;;;;;;5020178;28;20232;-84
2023/06/19 04:14:09;;;;;;;7.55;6.85;;;19.80;92.40;;;;;;5017498;28;20233;-84
2023/06/19 04:16:37;;;;;;;7.97;7.18;;;19.80;92.50;;;;;;5025620;28;20243;-83
2023/06/19 04:19:04;;;;;;;8.23;7.43;;;19.80;92.40;;;;;;5028719;28;20217;-82
2023/06/19 04:21:30;;;;;;;7.40;6.55;;;19.90;92.80;;;;;;5027310;28;20639;-83
2023/06/19 04:23:58;;;;;;;8.27;6.97;;;19.80;92.40;;;;;;5032650;28;20217;-82
2023/06/19 04:26:25;;;;;;;7.82;7.00;;;19.80;92.50;;;;;;5033850;28;20273;-84
2023/06/19 04:28:52;;;;;;;7.78;7.07;;;19.90;92.60;;;;;;5030689;28;20239;-84
2023/06/19 04:31:21;;;;;;;7.72;7.03;;;19.80;92.50;;;;;;5025933;28;20311;-84
2023/06/19 04:33:48;;;;;;;7.43;6.72;;;19.90;92.50;;;;;;5025974;28;20587;-82
2023/06/19 04:36:15;;;;;;;7.53;6.75;;;19.90;92.50;;;;;;5026441;28;20216;-83
2023/06/19 04:38:44;;;;;;;7.55;6.70;;;19.90;92.50;;;;;;5028552;28;20761;-83
2023/06/19 04:41:10;;;;;;;7.95;7.25;;;19.90;92.60;;;;;;5022641;28;20235;-83
2023/06/19 04:43:39;;;;;;;8.38;7.15;;;19.90;92.60;;;;;;5023814;28;20300;-83
2023/06/19 04:46:05;;;;;;;8.32;7.53;;;19.90;92.60;;;;;;5027070;28;21020;-85
2023/06/19 04:48:36;;;;;;;7.85;7.15;;;19.90;92.70;;;;;;5031708;28;20324;-84
2023/06/19 04:51:03;;;;;;;8.02;7.32;;;19.80;92.80;;;;;;5028694;28;20291;-83
2023/06/19 04:53:30;;;;;;;7.93;7.20;;;19.80;92.80;;;;;;5040717;28;20232;-84
2023/06/19 04:55:57;;;;;;;7.70;7.00;;;19.80;92.90;;;;;;5035974;28;20216;-83
2023/06/19 04:58:23;;;;;;;7.68;7.03;;;19.80;92.90;;;;;;5031577;28;20224;-82
2023/06/19 05:00:52;;;;;;;9.15;7.55;;;19.90;93.20;;;;;;5033842;28;20228;-82
2023/06/19 05:03:19;;;;;;;8.32;7.32;;;19.80;93.20;;;;;;5039252;28;20216;-82
2023/06/19 05:05:47;;;;;;;7.85;7.00;;;19.80;93.20;;;;;;5031244;28;20251;-83
2023/06/19 05:08:14;;;;;;;8.43;7.45;;;19.80;93.20;;;;;;5042871;28;20224;-82
2023/06/19 05:10:41;;;;;;;9.57;7.40;;;19.80;93.30;;;;;;5031907;28;20654;-82
2023/06/19 05:13:08;;;;;;;8.65;7.53;;;19.80;93.30;;;;;;5037416;28;20217;-81
2023/06/19 05:15:35;;;;;;;7.90;7.20;;;19.80;93.40;;;;;;5035689;28;20225;-82
2023/06/19 05:18:01;;;;;;;8.18;7.38;;;19.70;93.40;;;;;;5029012;28;20705;-81
2023/06/19 05:20:28;;;;;;;8.75;7.80;;;19.70;93.40;;;;;;5031054;28;20248;-82
2023/06/19 05:22:56;;;;;;;8.38;7.57;;;19.80;93.40;;;;;;5024443;28;20295;-82
2023/06/19 05:25:23;;;;;;;7.93;7.13;;;19.80;93.60;;;;;;5030367;28;20248;-82
2023/06/19 05:27:49;;;;;;;8.65;7.85;;;19.80;93.50;;;;;;5030858;28;20247;-82
2023/06/19 05:30:16;;;;;;;8.30;7.30;;;19.80;93.60;;;;;;5031701;28;20275;-83
2023/06/19 05:32:43;;;;;;;8.65;7.82;;;19.80;93.50;;;;;;5029105;28;20694;-83
2023/06/19 05:35:10;;;;;;;8.80;8.00;;;19.80;93.60;;;;;;5023733;28;20217;-82
2023/06/19 05:37:37;;;;;;;8.95;8.05;;;19.80;93.60;;;;;;5032590;28;20317;-83
2023/06/19 05:40:07;;;;;;;8.60;7.70;;;19.80;93.60;;;;;;5025345;28;20221;-82
2023/06/19 05:42:34;;;;;;;8.70;7.68;;;19.80;93.70;;;;;;5030986;28;20282;-84
2023/06/19 05:45:01;;;;;;;8.43;7.72;;;19.80;93.70;;;;;;5030432;28;20227;-82
2023/06/19 05:47:30;;;;;;;8.32;7.63;;;19.80;93.90;;;;;;5028384;28;20895;-81
2023/06/19 05:49:57;;;;;;;9.25;7.63;;;19.80;93.90;;;;;;5034273;28;20303;-81
2023/06/19 05:52:24;;;;;;;9.30;8.30;;;19.80;93.90;;;;;;5028744;28;20260;-81
2023/06/19 05:54:52;;;;;;;9.57;8.38;;;19.80;94.00;;;;;;5044804;28;20259;-80
2023/06/19 05:57:20;;;;;;;8.75;7.85;;;19.80;94.00;;;;;;5032086;28;20223;-80
2023/06/19 05:59:47;;;;;;;9.35;8.35;;;19.80;93.90;;;;;;5027056;28;20918;-81
2023/06/19 06:02:15;;;;;;;8.27;7.53;;;19.80;93.90;;;;;;5012507;28;20218;-80
2023/06/19 06:04:42;;;;;;;8.82;7.93;;;19.80;94.00;;;;;;5026825;28;20225;-81
2023/06/19 06:07:09;;;;;;;8.82;8.02;;;19.80;93.90;;;;;;5032129;28;20229;-81
2023/06/19 06:09:35;;;;;;;8.55;7.75;;;19.80;93.90;;;;;;5029896;28;20252;-81
2023/06/19 06:12:02;;;;;;;9.07;8.18;;;19.80;93.90;;;;;;5031231;28;20594;-81
2023/06/19 06:14:30;;;;;;;9.10;8.30;;;19.80;93.90;;;;;;5028932;28;20237;-82
2023/06/19 06:16:57;;;;;;;9.18;8.13;;;19.90;94.00;;;;;;5027555;28;20241;-82
2023/06/19 06:19:24;;;;;;;9.10;8.30;;;19.90;94.00;;;;;;5024270;28;22504;-82
2023/06/19 06:21:50;;;;;;;9.25;8.35;;;19.80;94.10;;;;;;5045474;28;20248;-81
2023/06/19 06:24:17;;;;;;;9.05;8.20;;;19.80;94.30;;;;;;5027853;28;20240;-81
2023/06/19 06:26:45;;;;;;;9.40;8.55;;;19.80;94.30;;;;;;5028580;28;20233;-81
2023/06/19 06:29:11;;;;;;;9.23;8.40;;;19.80;94.50;;;;;;5031311;28;20890;-82
2023/06/19 06:31:41;;;;;;;8.90;8.10;;;19.80;94.50;;;;;;5030538;28;20659;-81
2023/06/19 06:34:08;;;;;;;8.90;8.10;;;19.90;94.60;;;;;;5024525;28;20231;-81
2023/06/19 06:36:35;;;;;;;9.23;8.30;;;19.90;94.70;;;;;;5026369;28;20224;-82
2023/06/19 06:39:01;;;;;;;10.82;8.40;;;20.00;95.10;;;;;;5024504;28;20276;-82
2023/06/19 06:41:30;;;;;;;11.68;8.20;;;20.00;95.20;;;;;;5030544;28;20267;-82
2023/06/19 06:43:57;;;;;;;14.38;8.57;;;20.10;95.20;;;;;;5049446;28;20328;-82
2023/06/19 06:46:23;;;;;;;9.23;8.23;;;20.10;95.20;;;;;;5030385;28;20225;-82
2023/06/19 06:48:51;;;;;;;11.13;8.25;;;20.20;95.70;;;;;;5033582;28;20232;-83
2023/06/19 06:51:18;;;;;;;9.73;8.73;;;20.20;95.70;;;;;;5030127;28;20831;-83
2023/06/19 06:53:45;;;;;;;9.52;8.63;;;20.30;95.50;;;;;;5033233;28;20244;-84
2023/06/19 06:56:11;;;;;;;10.65;8.45;;;20.30;95.30;;;;;;5032599;28;20283;-81
2023/06/19 06:58:39;;;;;;;9.70;8.80;;;20.40;96.00;;;;;;5037291;28;20263;-81
2023/06/19 07:01:05;;;;;;;10.13;9.15;;;20.50;96.60;;;;;;5034404;28;20275;-81
2023/06/19 07:03:32;;;;;;;9.32;8.48;;;20.50;96.70;;;;;;5032909;28;20221;-81
2023/06/19 07:06:01;;;;;;;8.98;8.13;;;20.60;98.20;;;;;;5028424;28;20267;-81
2023/06/19 07:08:27;;;;;;;10.38;9.48;;;20.70;98.20;;;;;;5030850;28;20723;-80
2023/06/19 07:10:54;;;;;;;10.23;9.23;;;20.80;98.60;;;;;;5025914;28;20225;-81
2023/06/19 07:13:21;;;;;;;10.27;9.18;;;20.80;98.50;;;;;;5030384;28;20285;-81
2023/06/19 07:15:47;;;;;;;9.80;8.80;;;20.90;98.70;;;;;;5030842;28;20274;-81
2023/06/19 07:18:14;;;;;;;9.30;8.40;;;20.80;97.90;;;;;;5035336;28;20223;-82
2023/06/19 07:20:41;;;;;;;10.55;9.65;;;20.80;98.20;;;;;;5034912;28;20805;-81
2023/06/19 07:23:09;;;;;;;9.23;8.38;;;20.90;98.20;;;;;;5027643;28;20220;-83
2023/06/19 07:25:36;;;;;;;9.48;8.48;;;20.80;97.80;;;;;;5032775;28;20220;-83
2023/06/19 07:28:04;;;;;;;10.10;9.10;;;20.90;97.80;;;;;;5034516;28;20237;-83
2023/06/19 07:30:31;;;;;;;9.38;8.48;;;20.80;98.10;;;;;;5033710;28;20237;-83
2023/06/19 07:32:57;;;;;;;10.02;9.02;;;20.80;97.80;;;;;;5028637;28;20595;-83
2023/06/19 07:35:24;;;;;;;9.43;8.55;;;20.90;97.50;;;;;;5042080;28;20232;-79
2023/06/19 07:37:51;;;;;;;9.70;8.45;;;20.90;97.20;;;;;;5022219;28;20225;-78
2023/06/19 07:40:19;;;;;;;10.57;9.07;;;21.00;97.10;;;;;;5022395;28;20223;-78
2023/06/19 07:42:45;;;;;;;10.52;9.52;;;21.00;97.00;;;;;;5019378;28;20231;-78
2023/06/19 07:45:13;;;;;;;9.77;8.85;;;21.00;97.50;;;;;;5016598;28;20217;-78
2023/06/19 07:47:40;;;;;;;9.95;9.05;;;21.10;97.80;;;;;;5022553;28;20227;-78
2023/06/19 07:50:07;;;;;;;9.52;8.60;;;21.10;97.10;;;;;;5020461;28;20224;-79
2023/06/19 07:52:34;;;;;;;10.15;9.25;;;21.20;96.80;;;;;;5022818;28;20228;-78
2023/06/19 07:55:01;;;;;;;9.60;8.60;;;21.20;96.60;;;;;;5021917;28;20307;-78
2023/06/19 07:57:29;;;;;;;9.60;8.60;;;21.20;96.50;;;;;;5020783;28;20248;-78
2023/06/19 07:59:56;;;;;;;10.30;8.73;;;21.30;96.20;;;;;;5022238;28;20632;-78
2023/06/19 08:02:23;;;;;;;9.52;8.52;;;21.30;96.30;;;;;;5045044;28;20252;-79
2023/06/19 08:04:49;;;;;;;9.88;8.93;;;21.30;96.10;;;;;;5021318;28;20242;-78
2023/06/19 08:07:17;;;;;;;10.43;9.43;;;21.40;96.00;;;;;;5021784;28;20224;-78
2023/06/19 08:09:44;;;;;;;10.32;9.27;;;21.50;95.80;;;;;;5015479;28;20235;-79
2023/06/19 08:12:11;;;;;;;9.20;8.30;;;21.50;95.60;;;;;;5019000;28;20223;-79
2023/06/19 08:14:39;;;;;;;10.80;9.70;;;21.60;95.60;;;;;;5020859;28;20248;-79
2023/06/19 08:17:06;;;;;;;11.90;9.20;;;21.60;95.70;;;;;;5037277;28;20235;-78
2023/06/19 08:19:33;;;;;;;10.25;9.18;;;21.80;95.70;;;;;;5022349;28;20251;-78
2023/06/19 08:21:59;;;;;;;10.32;9.23;;;22.00;95.80;;;;;;5017109;28;20229;-79
2023/06/19 08:24:26;;;;;;;10.95;9.85;;;22.50;95.90;;;;;;5021412;28;20229;-79
2023/06/19 08:26:53;;;;;;;11.18;9.00;;;22.90;95.00;;;;;;5040008;28;20228;-78
2023/06/19 08:29:20;;;;;;;9.88;8.93;;;23.40;94.30;;;;;;5022388;28;20811;-79
2023/06/19 08:31:48;;;;;;;11.40;8.75;;;23.80;93.50;;;;;;5016690;28;20354;-79
2023/06/19 08:34:14;;;;;;;10.40;9.40;;;24.20;93.20;;;;;;5025378;28;20695;-79
2023/06/19 08:36:41;;;;;;;9.63;8.63;;;24.60;92.50;;;;;;5013780;28;20216;-79
2023/06/19 08:39:08;;;;;;;10.00;8.95;;;24.90;92.10;;;;;;5025215;28;20227;-81
2023/06/19 08:41:35;;;;;;;10.07;9.18;;;25.10;91.30;;;;;;5024678;28;20229;-80
2023/06/19 08:44:03;;;;;;;9.68;8.80;;;25.20;90.00;;;;;;5018453;28;20236;-83
2023/06/19 08:46:29;;;;;;;10.75;9.75;;;25.30;89.40;;;;;;5020901;28;20301;-81
2023/06/19 08:48:59;;;;;;;10.02;9.13;;;25.40;89.60;;;;;;5002940;28;20232;-81
2023/06/19 08:51:28;;;;;;;8.75;7.95;;;25.40;88.00;;;;;;5015088;28;20226;-82
2023/06/19 08:53:57;;;;;;;9.77;8.65;;;25.60;88.70;;;;;;4988480;28;20272;-81
2023/06/19 08:56:24;;;;;;;10.05;9.07;;;25.70;88.20;;;;;;5019716;28;20698;-81
2023/06/19 08:58:51;;;;;;;9.60;8.65;;;26.00;86.60;;;;;;5005373;28;20224;-81
2023/06/19 09:01:19;;;;;;;10.18;8.75;;;26.30;86.40;;;;;;5019859;28;20248;-81
2023/06/19 09:03:46;;;;;;;9.55;8.75;;;26.80;83.80;;;;;;5028449;28;20343;-83
2023/06/19 09:06:17;;;;;;;9.60;8.65;;;27.20;84.00;;;;;;5027003;28;20739;-83
2023/06/19 09:08:44;;;;;;;10.02;9.13;;;27.60;83.40;;;;;;5018069;28;20792;-82
2023/06/19 09:11:12;;;;;;;10.50;9.48;;;27.90;81.10;;;;;;5022848;28;20220;-84
2023/06/19 09:13:38;;;;;;;10.48;9.48;;;28.20;80.40;;;;;;5022480;28;20235;-82
2023/06/19 09:16:06;;;;;;;9.70;8.80;;;28.40;79.90;;;;;;5021409;28;20224;-84
2023/06/19 09:18:43;;;;;;;10.13;8.63;;;28.60;77.20;;;;;;5023023;28;20232;-84
2023/06/19 09:21:18;;;;;;;9.70;8.82;;;28.70;76.50;;;;;;5050606;28;20307;-82
2023/06/19 09:23:45;;;;;;;9.57;8.65;;;28.60;74.50;;;;;;5022787;28;20840;-80
2023/06/19 09:26:15;;;;;;;9.68;8.65;;;28.60;74.70;;;;;;5020503;28;20224;-80
2023/06/19 09:28:43;;;;;;;8.80;8.00;;;28.50;75.50;;;;;;5025259;28;20765;-80
2023/06/19 09:31:09;;;;;;;9.57;8.43;;;28.50;76.20;;;;;;5015768;28;20217;-80
2023/06/19 09:33:37;;;;;;;10.05;9.10;;;28.50;75.60;;;;;;5017914;28;20232;-80
2023/06/19 09:36:05;;;;;;;9.43;8.52;;;28.60;74.90;;;;;;5024729;28;20710;-80
2023/06/19 09:38:35;;;;;;;11.65;9.38;;;28.60;75.40;;;;;;5024308;28;20233;-78
2023/06/19 09:41:04;;;;;;;9.63;8.73;;;28.80;73.20;;;;;;5018891;28;20958;-77
2023/06/19 09:43:36;;;;;;;8.98;8.20;;;29.00;72.70;;;;;;5020371;28;20228;-78
2023/06/19 09:46:04;;;;;;;8.75;7.95;;;29.10;71.90;;;;;;5015999;28;20248;-78
2023/06/19 09:48:34;;;;;;;8.85;8.05;;;29.40;71.70;;;;;;5020089;28;20235;-77
2023/06/19 09:51:09;;;;;;;8.52;7.72;;;29.50;69.40;;;;;;5022888;28;20228;-77
2023/06/19 09:53:38;;;;;;;8.50;7.78;;;29.60;69.60;;;;;;5020178;28;20640;-78
2023/06/19 09:56:04;;;;;;;8.15;6.75;;;29.70;67.70;;;;;;5021721;28;20235;-77
2023/06/19 09:58:32;;;;;;;8.48;7.68;;;29.60;67.70;;;;;;5021884;28;20224;-77
2023/06/19 10:01:00;;;;;;;8.10;7.40;;;29.60;67.60;;;;;;5023530;28;20725;-77
2023/06/19 10:03:31;;;;;;;8.10;7.40;;;29.40;67.00;;;;;;5022402;28;20224;-77
2023/06/19 10:05:59;;;;;;;8.48;7.68;;;29.40;66.80;;;;;;5018171;28;20232;-77
2023/06/19 10:08:30;;;;;;;9.07;8.18;;;29.30;67.70;;;;;;5015882;28;20369;-77
2023/06/19 10:10:59;;;;;;;8.70;7.95;;;29.30;68.40;;;;;;5015839;28;20364;-77
2023/06/19 10:13:33;;;;;;;8.80;8.00;;;29.30;67.20;;;;;;5045805;28;20228;-77
2023/06/19 10:15:59;;;;;;;8.80;7.90;;;29.30;68.40;;;;;;5019128;28;20220;-78
2023/06/19 10:18:26;;;;;;;9.45;8.40;;;29.30;67.30;;;;;;5021903;28;20225;-77
2023/06/19 10:20:55;;;;;;;9.00;8.00;;;29.30;66.60;;;;;;5020190;28;20309;-77
2023/06/19 10:23:23;;;;;;;8.90;8.10;;;29.30;66.80;;;;;;5022570;28;20225;-78
2023/06/19 10:26:00;;;;;;;8.88;8.00;;;29.30;66.90;;;;;;5035102;28;20236;-77
2023/06/19 10:28:29;;;;;;;8.75;7.72;;;29.30;66.60;;;;;;5022670;28;20249;-77
2023/06/19 10:30:57;;;;;;;10.00;8.30;;;29.40;67.20;;;;;;5035894;28;20264;-77
2023/06/19 10:33:25;;;;;;;8.77;7.97;;;29.40;65.90;;;;;;5019586;28;20233;-78
2023/06/19 10:35:52;;;;;;;9.25;8.32;;;29.50;66.50;;;;;;5024402;28;20236;-77
2023/06/19 10:38:19;;;;;;;9.32;8.38;;;29.60;65.80;;;;;;5023906;28;20582;-78
2023/06/19 10:40:47;;;;;;;9.48;8.52;;;29.60;65.60;;;;;;5024120;28;20255;-77
2023/06/19 10:43:21;;;;;;;9.43;8.52;;;29.70;66.00;;;;;;5048338;28;20312;-77
2023/06/19 10:45:47;;;;;;;9.27;8.45;;;29.50;64.70;;;;;;5018048;28;20726;-77
2023/06/19 10:48:20;;;;;;;9.57;8.77;;;29.50;65.30;;;;;;5001076;28;20659;-77
2023/06/19 10:50:49;;;;;;;9.52;8.30;;;29.40;65.50;;;;;;5004504;28;20233;-78
2023/06/19 10:53:25;;;;;;;10.15;8.55;;;29.20;65.40;;;;;;4998606;28;20227;-77
2023/06/19 10:55:55;;;;;;;10.73;8.50;;;29.30;66.30;;;;;;5008112;28;20221;-77
2023/06/19 10:58:23;;;;;;;10.10;8.57;;;29.40;66.40;;;;;;5032561;28;20225;-77
2023/06/19 11:00:50;;;;;;;9.25;8.23;;;29.60;66.20;;;;;;5023571;28;20236;-77
2023/06/19 11:03:17;;;;;;;9.13;8.23;;;29.60;65.00;;;;;;5025671;28;20221;-77
2023/06/19 11:05:45;;;;;;;10.07;9.18;;;29.60;65.50;;;;;;5016408;28;20229;-77
2023/06/19 11:08:17;;;;;;;9.30;8.48;;;29.70;65.60;;;;;;5000977;28;20231;-77
2023/06/19 11:10:44;;;;;;;9.20;8.40;;;29.80;65.10;;;;;;5019353;28;20233;-77
2023/06/19 11:13:15;;;;;;;9.35;8.30;;;29.90;65.40;;;;;;5012078;28;20774;-77
2023/06/19 11:15:43;;;;;;;10.15;9.15;;;30.00;65.10;;;;;;5006979;28;20707;-77
2023/06/19 11:18:10;;;;;;;9.77;8.80;;;30.20;64.70;;;;;;5018055;28;20296;-77
2023/06/19 11:20:44;;;;;;;9.02;8.23;;;30.40;65.00;;;;;;5023524;28;20239;-77
2023/06/19 11:23:11;;;;;;;9.55;8.65;;;30.60;64.80;;;;;;5019010;28;20216;-77
2023/06/19 11:25:39;;;;;;;9.98;8.98;;;30.80;64.60;;;;;;5008757;28;20298;-77
2023/06/19 11:28:06;;;;;;;10.00;9.13;;;31.00;62.90;;;;;;5023209;28;20702;-78
2023/06/19 11:30:33;;;;;;;9.77;8.80;;;31.30;62.30;;;;;;5018173;28;20247;-78
2023/06/19 11:33:02;;;;;;;8.77;7.97;;;31.40;60.70;;;;;;5015020;28;20229;-76
2023/06/19 11:35:35;;;;;;;9.55;8.65;;;31.60;62.00;;;;;;5007061;28;20292;-80
2023/06/19 11:38:03;;;;;;;8.95;8.05;;;31.80;61.60;;;;;;5006240;28;20316;-78
2023/06/19 11:40:39;;;;;;;9.77;8.77;;;32.00;61.50;;;;;;5006283;28;20266;-78
2023/06/19 11:43:06;;;;;;;9.13;8.30;;;32.30;60.70;;;;;;5003940;28;20307;-78
2023/06/19 11:45:33;;;;;;;9.48;8.60;;;32.50;60.50;;;;;;5008188;28;20312;-78
2023/06/19 11:48:00;;;;;;;8.57;7.68;;;32.60;58.70;;;;;;5006102;28;20224;-79
2023/06/19 11:50:29;;;;;;;9.20;8.27;;;32.70;58.40;;;;;;5029746;28;20291;-79
2023/06/19 11:52:57;;;;;;;8.40;7.57;;;32.60;56.80;;;;;;5021233;28;20225;-79
2023/06/19 11:55:23;;;;;;;7.85;7.07;;;32.60;57.30;;;;;;5018310;28;22205;-79
2023/06/19 11:57:50;;;;;;;8.93;8.02;;;32.70;57.60;;;;;;5020235;28;20835;-79
2023/06/19 12:00:17;;;;;;;9.25;8.45;;;32.90;58.00;;;;;;5008608;28;20216;-79
2023/06/19 12:02:46;;;;;;;9.02;7.82;;;33.10;58.00;;;;;;5018549;28;20225;-80
2023/06/19 12:05:14;;;;;;;7.95;7.25;;;33.30;56.20;;;;;;5017392;28;20965;-79
2023/06/19 12:07:42;;;;;;;7.68;7.07;;;33.40;56.00;;;;;;5017274;28;20232;-79
2023/06/19 12:10:11;;;;;;;9.48;7.20;;;33.50;55.30;;;;;;5018589;28;20915;-79
2023/06/19 12:12:38;;;;;;;8.05;7.35;;;33.60;55.80;;;;;;5022804;28;20236;-79
2023/06/19 12:15:06;;;;;;;7.93;7.22;;;33.70;55.50;;;;;;5022773;28;20235;-79
2023/06/19 12:17:33;;;;;;;7.60;6.78;;;33.70;55.50;;;;;;5018414;28;20895;-79
2023/06/19 12:20:00;;;;;;;7.65;6.82;;;33.80;55.90;;;;;;5018592;28;20315;-79
2023/06/19 12:22:28;;;;;;;7.57;6.97;;;33.90;55.50;;;;;;5020672;28;20236;-79
2023/06/19 12:24:56;;;;;;;7.13;6.43;;;33.90;55.20;;;;;;5023117;28;20236;-79
2023/06/19 12:27:22;;;;;;;7.40;6.70;;;34.00;54.70;;;;;;5022413;28;20259;-79
2023/06/19 12:29:49;;;;;;;7.93;7.22;;;33.90;54.30;;;;;;5015083;28;21062;-79
2023/06/19 12:32:16;;;;;;;8.27;6.82;;;33.80;54.10;;;;;;5009141;28;20233;-79
2023/06/19 12:34:46;;;;;;;7.05;6.45;;;33.60;54.50;;;;;;5016591;28;20260;-79
2023/06/19 12:37:13;;;;;;;7.03;6.32;;;33.40;54.50;;;;;;5017598;28;20633;-79
2023/06/19 12:39:41;;;;;;;7.22;6.50;;;33.20;54.70;;;;;;5023268;28;20225;-79
2023/06/19 12:42:11;;;;;;;7.18;6.57;;;33.10;55.20;;;;;;5018451;28;20208;-79
2023/06/19 12:44:38;;;;;;;7.10;6.50;;;32.90;55.00;;;;;;5017870;28;20332;-79
2023/06/19 12:47:05;;;;;;;6.88;5.85;;;32.80;55.30;;;;;;5007009;28;20926;-79